Time;durP1;ratioP1;P1;durP2;ratioP2;P2;SDS_P1;SDS_P2;PMS_P1;PMS_P2;Temp;Humidity;BMP_temperature;BMP_pressure;BME280_temperature;BME280_humidity;BME280_pressure;Samples;Min_cycle;Max_cycle;Signal;HPM_P1;HPM_P2
2023/06/20 16:24:50;;;;;;;0.85;0.80;;;;;;;-145.06;100.00;60892.56;5837593;23;20137;31
2023/06/20 16:27:54;;;;;;;0.70;0.70;;;;;;;-145.06;100.00;60892.56;5808418;23;20024;-93
2023/06/20 16:30:59;;;;;;;;;;;;;;;;;;;;;
2023/06/20 16:37:04;;;;;;;1.25;1.13;;;;;;;-145.06;100.00;60892.56;5794855;23;20340;-93
2023/06/20 16:40:01;;;;;;;1.27;1.13;;;;;;;187.52;100.00;60892.56;5808020;23;20008;-95
2023/06/20 16:47:02;;;;;;;1.67;0.90;;;;;;;-145.06;100.00;60892.56;5824305;23;20035;-91
2023/06/20 17:16:43;;;;;;;1.10;0.90;;;;;;;-145.06;100.00;60892.56;5900578;23;20031;-93
2023/06/20 17:19:24;;;;;;;1.30;1.10;;;;;;;-145.06;100.00;60892.56;5870183;23;20014;-93
2023/06/20 17:22:03;;;;;;;1.05;0.95;;;;;;;-145.06;100.00;60892.56;5870534;23;20093;-95
2023/06/20 17:24:49;;;;;;;1.20;1.08;;;;;;;-145.06;100.00;60892.56;5871216;23;20006;-92
2023/06/20 17:30:45;;;;;;;1.45;0.80;;;;;;;-145.06;100.00;60892.56;5874572;23;20015;-91
2023/06/20 17:33:54;;;;;;;1.48;1.10;;;;;;;-145.06;100.00;60892.56;5844816;23;20006;-93
2023/06/20 17:36:40;;;;;;;0.98;0.88;;;;;;;-145.06;100.00;60892.56;5874141;23;20002;-92
2023/06/20 17:39:22;;;;;;;0.90;0.73;;;;;;;-145.06;100.00;60892.56;5873093;23;20339;-93
2023/06/20 17:42:02;;;;;;;1.38;0.95;;;;;;;30.30;100.00;60892.56;5873948;23;20006;-92
2023/06/20 17:44:41;;;;;;;1.05;0.95;;;;;;;-145.06;100.00;60892.56;5873685;23;20022;-93
2023/06/20 17:47:25;;;;;;;1.02;0.93;;;;;;;-145.06;100.00;60892.56;5874403;23;20010;-94
2023/06/20 17:50:08;;;;;;;1.10;0.88;;;;;;;-145.06;100.00;60892.56;5886482;23;20030;-94
2023/06/20 17:52:50;;;;;;;1.00;0.90;;;;;;;104.26;100.00;60892.56;5888564;23;19994;-95
2023/06/20 17:55:29;;;;;;;1.40;1.02;;;;;;;-145.06;100.00;60892.56;5877642;23;20081;-91
2023/06/20 17:58:08;;;;;;;1.25;1.10;;;;;;;-145.06;100.00;60892.56;5890256;23;20003;-93
2023/06/20 18:00:47;;;;;;;1.60;1.20;;;;;;;-145.06;100.00;60892.56;5867022;23;20010;-91
2023/06/20 18:03:26;;;;;;;0.98;0.88;;;;;;;-145.06;100.00;60892.56;5868019;23;20030;-94
2023/06/20 18:06:05;;;;;;;1.83;1.20;;;;;;;-145.06;100.00;60892.56;5867946;23;20010;-93
2023/06/20 18:08:44;;;;;;;1.63;1.30;;;;;;;29.85;100.00;60892.56;5867571;23;20011;-96
2023/06/20 18:11:24;;;;;;;1.75;1.55;;;;;;;-145.06;100.00;60892.56;5867247;23;20534;-94
2023/06/20 18:14:03;;;;;;;2.85;1.75;;;;;;;-145.06;100.00;60892.56;5866774;23;20014;-94
2023/06/20 18:16:42;;;;;;;1.77;1.38;;;;;;;-145.06;100.00;60892.56;5866712;23;20446;-96
2023/06/20 18:19:22;;;;;;;1.58;1.48;;;;;;;-145.06;100.00;60892.56;5867792;23;20077;-93
2023/06/20 18:22:01;;;;;;;1.65;1.35;;;;;;;-145.06;100.00;60892.56;5867426;23;20006;-94
2023/06/20 18:24:40;;;;;;;1.40;1.30;;;;;;;-145.06;100.00;60892.56;5867442;23;20054;-94
2023/06/20 18:27:19;;;;;;;1.67;1.50;;;;;;;-145.06;100.00;60892.56;5867767;23;20011;-93
2023/06/20 18:30:02;;;;;;;1.45;1.30;;;;;;;-145.06;100.00;60892.56;5867362;23;20081;-94
2023/06/20 18:32:41;;;;;;;1.60;1.50;;;;;;;-145.06;100.00;60892.56;5867139;23;20030;-95
2023/06/20 18:35:20;;;;;;;2.08;1.30;;;;;;;-145.06;100.00;60892.56;5867435;23;20014;-95
2023/06/20 18:38:44;;;;;;;;;;;;;;;;;;;;;
2023/06/20 18:41:38;;;;;;;1.48;1.38;;;;;;;187.52;100.00;60892.56;5879457;23;20006;-94
2023/06/20 18:44:20;;;;;;;1.67;1.20;;;;;;;-145.06;100.00;60892.56;5888559;23;20006;-92
2023/06/20 18:47:10;;;;;;;1.65;1.30;;;;;;;-145.06;100.00;60892.56;5869682;23;20006;-95
2023/06/20 18:49:54;;;;;;;1.75;1.55;;;;;;;-145.06;100.00;60892.56;5869873;23;20010;-96
2023/06/20 18:52:58;;;;;;;1.45;1.13;;;;;;;-145.06;100.00;60892.56;5869259;23;20003;-95
2023/06/20 18:56:04;;;;;;;;;;;;;;;;;;;;;
2023/06/20 18:59:05;;;;;;;;;;;;;;;;;;;;;
2023/06/20 19:01:51;;;;;;;1.30;1.20;;;;;;;-145.06;100.00;60892.56;5899137;23;20010;-95
2023/06/20 19:04:51;;;;;;;1.60;1.20;;;;;;;-145.06;100.00;60892.56;5869075;23;20002;-95
2023/06/20 19:15:21;;;;;;;;;;;;;;;;;;;;;
2023/06/20 19:18:44;;;;;;;1.17;1.08;;;;;;;-145.06;100.00;60892.56;5899303;23;20010;-94
2023/06/20 19:21:26;;;;;;;1.30;1.13;;;;;;;-145.06;100.00;60892.56;5889810;23;20457;-95
2023/06/20 19:27:43;;;;;;;;;;;;;;;;;;;;;
2023/06/20 19:31:03;;;;;;;;;;;;;;;;;;;;;
2023/06/20 19:38:06;;;;;;;;;;;;;;;;;;;;;
2023/06/20 19:41:28;;;;;;;;;;;;;;;;;;;;;
2023/06/20 19:44:48;;;;;;;;;;;;;;;;;;;;;
2023/06/20 19:48:29;;;;;;;;;;;;;;;;;;;;;
2023/06/20 19:51:30;;;;;;;;;;;;;;;;;;;;;
2023/06/20 19:54:09;;;;;;;0.85;0.75;;;;;;;-145.06;100.00;60892.56;5899459;23;19913;-93
2023/06/20 19:56:53;;;;;;;1.10;0.90;;;;;;;-145.06;100.00;60892.56;5867931;23;20010;-94
2023/06/20 19:59:45;;;;;;;;;;;;;;;;;;;;;
2023/06/20 20:02:27;;;;;;;0.85;0.80;;;;;;;-145.06;100.00;60892.56;5899722;23;20081;-94
2023/06/20 20:12:22;;;;;;;1.10;1.00;;;;;;;-145.06;100.00;60892.56;5895413;23;20375;-94
2023/06/20 20:15:29;;;;;;;;;;;;;;;;;;;;;
2023/06/20 20:18:10;;;;;;;1.27;1.10;;;;;;;-145.06;100.00;60892.56;5899876;23;20010;-95
2023/06/20 20:21:01;;;;;;;1.40;1.00;;;;;;;27.40;100.00;60892.56;5889284;23;20002;-95
2023/06/20 20:24:01;;;;;;;2.65;1.50;;;;;;;27.34;100.00;60892.56;5890813;23;20003;-94
2023/06/20 20:26:59;;;;;;;;;;;;;;;;;;;;;
2023/06/20 20:29:56;;;;;;;3.47;1.80;;;;;;;-145.06;100.00;60892.56;5899100;23;20041;-95
2023/06/20 20:32:47;;;;;;;2.75;1.50;;;;;;;27.00;100.00;60892.56;5889555;23;19999;-95
2023/06/20 20:35:29;;;;;;;2.63;1.30;;;;;;;-145.06;100.00;60892.56;5891302;23;20030;-94
2023/06/20 20:38:15;;;;;;;1.83;1.40;;;;;;;-145.06;100.00;60892.56;5889320;23;20010;-94
2023/06/20 20:49:22;;;;;;;1.23;0.90;;;;;;;-145.06;100.00;60892.56;5842714;23;20046;-96
2023/06/20 20:51:52;;;;;;;1.08;0.75;;;;;;;-145.06;100.00;60892.56;5889314;23;20011;-94
2023/06/20 20:54:33;;;;;;;0.80;0.73;;;;;;;-145.06;100.00;60892.56;5888763;23;20006;-94
2023/06/20 20:57:33;;;;;;;1.20;0.80;;;;;;;-145.06;100.00;60892.56;5888955;23;20323;-95
2023/06/20 21:00:13;;;;;;;1.73;0.85;;;;;;;-145.06;100.00;60892.56;5890022;23;20006;-95
2023/06/20 21:03:05;;;;;;;0.80;0.60;;;;;;;-145.06;100.00;60892.56;5889340;23;20183;-95
2023/06/20 21:05:54;;;;;;;1.25;0.80;;;;;;;-145.06;100.00;60892.56;5888765;23;20010;-94
2023/06/20 21:08:33;;;;;;;0.80;0.68;;;;;;;-145.06;100.00;60892.56;5888787;23;20089;-95
2023/06/20 21:11:15;;;;;;;0.80;0.70;;;;;;;-145.06;100.00;60892.56;5888409;23;20018;-95
2023/06/20 21:13:54;;;;;;;2.45;0.75;;;;;;;-145.06;100.00;60892.56;5888671;23;20026;-95
2023/06/20 21:16:43;;;;;;;1.02;0.63;;;;;;;24.93;100.00;60892.56;5889063;23;20014;-96
2023/06/20 21:22:34;;;;;;;0.98;0.70;;;;;;;-145.06;100.00;60892.56;5895368;23;20010;-95
2023/06/20 21:25:26;;;;;;;0.68;0.50;;;;;;;-145.06;100.00;60892.56;5889829;23;20002;-95
2023/06/20 21:38:06;;;;;;;0.68;0.50;;;;;;;-145.06;100.00;60892.56;5882470;23;20038;-96
2023/06/20 21:40:50;;;;;;;0.57;0.50;;;;;;;-145.06;100.00;60892.56;5888510;23;20011;-94
2023/06/20 21:43:33;;;;;;;0.98;0.70;;;;;;;-145.06;100.00;60892.56;5888487;23;20085;-94
2023/06/20 21:46:12;;;;;;;0.82;0.52;;;;;;;-145.06;100.00;60892.56;5888513;23;20038;-95
2023/06/20 21:48:51;;;;;;;0.80;0.60;;;;;;;-145.06;100.00;60892.56;5888436;23;20430;-93
2023/06/20 21:51:31;;;;;;;0.47;0.45;;;;;;;-145.06;100.00;60892.56;5888552;23;20437;-95
2023/06/20 21:54:11;;;;;;;1.60;0.80;;;;;;;-145.06;100.00;60892.56;5887941;23;20089;-94
2023/06/20 21:56:50;;;;;;;1.58;0.82;;;;;;;-145.06;100.00;60892.56;5888571;23;20444;-95
2023/06/20 21:59:34;;;;;;;1.77;0.70;;;;;;;-145.06;100.00;60892.56;5888331;23;20010;-94
2023/06/20 22:02:15;;;;;;;0.80;0.60;;;;;;;-145.06;100.00;60892.56;5888463;23;20442;-94
2023/06/20 22:04:55;;;;;;;0.95;0.70;;;;;;;-145.06;100.00;60892.56;5888255;23;20003;-95
2023/06/20 22:07:34;;;;;;;1.92;0.88;;;;;;;-145.06;100.00;60892.56;5887774;23;20018;-96
2023/06/20 22:10:18;;;;;;;1.27;0.90;;;;;;;62.66;100.00;60892.56;5888579;23;20006;-96
2023/06/20 22:13:00;;;;;;;1.08;0.82;;;;;;;-145.06;100.00;60892.56;5887877;23;20078;-95
2023/06/20 22:15:44;;;;;;;1.33;0.90;;;;;;;23.45;100.00;60892.56;5887895;23;20010;-96
2023/06/20 22:18:36;;;;;;;;;;;;;;;;;;;;;
2023/06/20 22:21:34;;;;;;;0.80;0.50;;;;;;;-145.06;100.00;60892.56;5898862;23;20006;-95
2023/06/20 22:24:23;;;;;;;0.98;0.80;;;;;;;23.32;100.00;60892.56;5888153;23;20038;-95
2023/06/20 22:27:11;;;;;;;1.45;0.80;;;;;;;-145.06;100.00;60892.56;5887616;23;20007;-93
2023/06/20 22:29:54;;;;;;;1.10;0.90;;;;;;;-145.06;100.00;60892.56;5888101;23;20002;-94
2023/06/20 22:33:04;;;;;;;0.80;0.60;;;;;;;-145.06;100.00;60892.56;5887813;23;20323;-92
2023/06/20 22:35:46;;;;;;;1.38;0.98;;;;;;;-145.06;100.00;60892.56;5887758;23;20010;-95
2023/06/20 22:38:48;;;;;;;1.02;0.90;;;;;;;-145.06;100.00;60892.56;5887460;23;20014;-95
2023/06/20 22:41:40;;;;;;;1.13;0.73;;;;;;;187.52;100.00;60892.56;5888023;23;20006;-94
2023/06/20 22:44:34;;;;;;;;;;;;;;;;;;;;;
2023/06/20 22:47:18;;;;;;;0.73;0.60;;;;;;;-145.06;100.00;60892.56;5898365;23;20453;-95
2023/06/20 22:49:57;;;;;;;1.23;0.80;;;;;;;-145.06;100.00;60892.56;5887736;23;20006;-95
2023/06/20 22:52:46;;;;;;;;;;;;;;;;;;;;;
2023/06/20 22:58:35;;;;;;;0.90;0.60;;;;;;;-145.06;100.00;60892.56;5888002;23;20010;-95
2023/06/20 23:01:24;;;;;;;1.13;0.80;;;;;;;-145.06;100.00;60892.56;5887765;23;20045;-94
2023/06/20 23:04:06;;;;;;;1.02;0.80;;;;;;;-145.06;100.00;60892.56;5887535;23;20010;-94
2023/06/20 23:06:50;;;;;;;0.95;0.70;;;;;;;-145.06;100.00;60892.56;5887337;23;20026;-94
2023/06/20 23:09:34;;;;;;;0.82;0.63;;;;;;;-145.06;100.00;60892.56;5887843;23;20014;-95
2023/06/20 23:12:18;;;;;;;0.85;0.65;;;;;;;-145.06;100.00;60892.56;5887687;23;20006;-94
2023/06/20 23:14:58;;;;;;;0.90;0.60;;;;;;;-145.06;100.00;60892.56;5887837;23;20014;-96
2023/06/20 23:17:42;;;;;;;0.88;0.60;;;;;;;22.57;100.00;60892.56;5887504;23;20429;-94
2023/06/20 23:20:31;;;;;;;0.80;0.60;;;;;;;-145.06;100.00;60892.56;5887392;23;20010;-95
2023/06/20 23:23:14;;;;;;;0.88;0.75;;;;;;;22.50;100.00;60892.56;5887240;23;20085;-95
2023/06/20 23:25:56;;;;;;;0.70;0.50;;;;;;;-145.06;100.00;60892.56;5887707;23;20042;-95
2023/06/20 23:29:27;;;;;;;1.63;0.50;;;;;;;-145.06;100.00;60892.56;5887273;23;20010;-95
2023/06/20 23:32:11;;;;;;;0.77;0.50;;;;;;;-145.06;100.00;60892.56;5883780;23;20011;-96
2023/06/20 23:34:55;;;;;;;1.00;0.80;;;;;;;-145.06;100.00;60892.56;5887352;23;20003;-95
2023/06/20 23:37:57;;;;;;;;;;;;;;;;;;;;;
2023/06/20 23:41:26;;;;;;;1.10;0.80;;;;;;;-145.06;100.00;60892.56;5897884;23;20033;-94
2023/06/20 23:44:22;;;;;;;;;;;;;;;;;;;;;
2023/06/20 23:47:09;;;;;;;0.60;0.60;;;;;;;-145.06;100.00;60892.56;5898151;23;20006;-94
2023/06/20 23:49:58;;;;;;;;;;;;;;;;;;;;;
2023/06/20 23:52:56;;;;;;;;;;;;;;;;;;;;;
2023/06/20 23:55:40;;;;;;;0.60;0.60;;;;;;;-145.06;100.00;60892.56;5901295;23;20390;-95
2023/06/20 23:58:31;;;;;;;0.85;0.80;;;;;;;-145.06;100.00;60892.56;5890981;23;20014;-92
